createdAt,value
2022-09-12T00:00:24.314Z,101369.47
2022-09-12T00:02:53.775Z,101372.44
2022-09-12T00:05:21.616Z,101372.94
2022-09-12T00:07:49.607Z,101375.94
2022-09-12T00:10:17.991Z,101370.72
2022-09-12T00:12:45.758Z,101363.97
2022-09-12T00:15:13.692Z,101364.00
2022-09-12T00:17:42.691Z,101371.16
2022-09-12T00:20:12.196Z,101367.00
2022-09-12T00:22:39.876Z,101358.28
2022-09-12T00:25:08.822Z,101372.34
2022-09-12T00:27:36.505Z,101369.13
2022-09-12T00:30:05.402Z,101366.34
2022-09-12T00:32:33.092Z,101370.88
2022-09-12T00:35:02.778Z,101366.91
2022-09-12T00:37:30.447Z,101365.31
2022-09-12T00:39:58.533Z,101363.28
2022-09-12T00:42:26.313Z,101363.84
2022-09-12T00:44:54.056Z,101367.81
2022-09-12T00:47:25.475Z,101365.88
2022-09-12T00:49:59.109Z,101353.91
2022-09-12T00:52:33.548Z,101369.31
2022-09-12T00:55:06.408Z,101357.28
2022-09-12T00:57:38.810Z,101363.00
2022-09-12T01:00:14.550Z,101359.06
2022-09-12T01:02:43.633Z,101364.03
2022-09-12T01:05:12.213Z,101362.47
2022-09-12T01:07:42.676Z,101361.91
2022-09-12T01:10:11.439Z,101365.53
2022-09-12T01:12:41.199Z,101371.38
2022-09-12T01:15:10.328Z,101366.44
2022-09-12T01:17:50.029Z,101365.81
2022-09-12T01:20:54.735Z,101360.97
2022-09-12T01:23:49.287Z,101364.56
2022-09-12T01:26:45.382Z,101370.06
2022-09-12T01:29:33.603Z,101374.59
2022-09-12T01:32:11.669Z,101371.09
2022-09-12T01:34:48.593Z,101366.94
2022-09-12T01:37:26.041Z,101363.53
2022-09-12T01:40:10.379Z,101362.97
2022-09-12T01:42:47.015Z,101359.09
2022-09-12T01:45:19.843Z,101353.56
2022-09-12T01:47:53.071Z,101353.47
2022-09-12T01:50:25.750Z,101354.25
2022-09-12T01:52:58.780Z,101348.88
2022-09-12T01:55:31.857Z,101355.66
2022-09-12T01:58:06.299Z,101352.94
2022-09-12T02:00:38.314Z,101353.53
2022-09-12T02:03:11.793Z,101353.78
2022-09-12T02:05:45.835Z,101354.53
2022-09-12T02:08:18.039Z,101357.25
2022-09-12T02:10:51.988Z,101355.88
2022-09-12T02:13:24.124Z,101362.44
2022-09-12T02:15:56.711Z,101357.84
2022-09-12T02:18:30.104Z,101358.63
2022-09-12T02:20:58.469Z,101360.22
2022-09-12T02:23:29.565Z,101359.28
2022-09-12T02:26:02.327Z,101357.59
2022-09-12T02:28:35.162Z,101355.69
2022-09-12T02:31:15.293Z,101368.97
2022-09-12T02:33:53.285Z,101358.72
2022-09-12T02:36:33.339Z,101353.31
2022-09-12T02:39:01.525Z,101364.47
2022-09-12T02:41:29.586Z,101358.28
2022-09-12T02:43:57.472Z,101355.13
2022-09-12T02:46:30.759Z,101352.88
2022-09-12T02:49:00.150Z,101347.56
2022-09-12T02:51:28.255Z,101351.88
2022-09-12T02:53:57.118Z,101353.53
2022-09-12T02:56:28.389Z,101352.09
2022-09-12T02:59:00.736Z,101365.63
2022-09-12T03:01:42.002Z,101364.84
2022-09-12T03:04:27.178Z,101363.91
2022-09-12T03:07:10.728Z,101361.53
2022-09-12T03:09:47.180Z,101361.56
2022-09-12T03:12:33.048Z,101357.81
2022-09-12T03:15:20.298Z,101360.56
2022-09-12T03:18:03.010Z,101363.94
2022-09-12T03:20:46.121Z,101357.72
2022-09-12T03:23:25.182Z,101356.13
2022-09-12T03:25:58.445Z,101357.28
2022-09-12T03:28:26.854Z,101351.06
2022-09-12T03:30:56.490Z,101355.34
2022-09-12T03:33:25.973Z,101355.69
2022-09-12T03:35:56.305Z,101355.59
2022-09-12T03:38:23.958Z,101353.31
2022-09-12T03:40:54.879Z,101352.09
2022-09-12T03:43:22.818Z,101358.63
2022-09-12T03:45:53.213Z,101361.88
2022-09-12T03:48:20.962Z,101363.81
2022-09-12T03:50:48.642Z,101369.34
2022-09-12T03:53:17.928Z,101371.25
2022-09-12T03:55:45.630Z,101378.56
2022-09-12T03:58:13.307Z,101372.47
2022-09-12T04:00:42.821Z,101378.13
2022-09-12T04:03:10.488Z,101370.91
2022-09-12T04:05:38.137Z,101370.00
2022-09-12T04:08:05.856Z,101368.31
2022-09-12T04:10:34.933Z,101366.06
2022-09-12T04:13:02.841Z,101363.56
2022-09-12T04:15:30.530Z,101367.97
2022-09-12T04:18:00.467Z,101369.53
2022-09-12T04:20:31.428Z,101364.59
2022-09-12T04:22:59.075Z,101364.84
2022-09-12T04:25:28.270Z,101366.63
2022-09-12T04:27:57.434Z,101358.97
2022-09-12T04:30:25.160Z,101371.13
2022-09-12T04:32:52.869Z,101365.59
2022-09-12T04:35:20.524Z,101370.31
2022-09-12T04:37:48.179Z,101366.81
2022-09-12T04:40:16.103Z,101371.78
2022-09-12T04:42:43.854Z,101367.03
2022-09-12T04:45:13.476Z,101367.16
2022-09-12T04:47:41.132Z,101372.44
2022-09-12T04:50:09.785Z,101368.41
2022-09-12T04:52:37.419Z,101363.69
2022-09-12T04:55:05.731Z,101367.84
2022-09-12T04:57:33.661Z,101364.66
2022-09-12T05:00:06.478Z,101358.81
2022-09-12T05:02:36.482Z,101370.22
2022-09-12T05:05:04.275Z,101364.81
2022-09-12T05:07:32.024Z,101373.72
2022-09-12T05:10:00.509Z,101363.81
2022-09-12T05:12:28.729Z,101360.31
2022-09-12T05:14:56.572Z,101368.22
2022-09-12T05:17:24.180Z,101366.06
2022-09-12T05:19:53.184Z,101371.91
2022-09-12T05:22:20.788Z,101366.97
2022-09-12T05:24:50.579Z,101367.84
2022-09-12T05:27:18.745Z,101369.91
2022-09-12T05:29:46.440Z,101370.22
2022-09-12T05:32:14.105Z,101371.59
2022-09-12T05:34:41.856Z,101380.91
2022-09-12T05:37:10.867Z,101379.03
2022-09-12T05:39:38.628Z,101375.19
2022-09-12T05:42:07.264Z,101371.69
2022-09-12T05:44:34.945Z,101380.69
2022-09-12T05:47:02.609Z,101382.41
2022-09-12T05:49:30.259Z,101382.28
2022-09-12T05:51:57.965Z,101375.63
2022-09-12T05:54:31.369Z,101379.91
2022-09-12T05:57:00.152Z,101382.97
2022-09-12T05:59:28.504Z,101396.81
2022-09-12T06:01:56.274Z,101396.13
2022-09-12T06:04:24.986Z,101389.69
2022-09-12T06:06:52.725Z,101387.63
2022-09-12T06:09:20.687Z,101399.03
2022-09-12T06:11:49.677Z,101400.94
2022-09-12T06:14:19.413Z,101403.28
2022-09-12T06:16:48.572Z,101399.13
2022-09-12T06:19:18.485Z,101399.44
2022-09-12T06:21:47.610Z,101396.66
2022-09-12T06:24:15.364Z,101404.19
2022-09-12T06:26:43.753Z,101412.25
2022-09-12T06:29:13.294Z,101412.94
2022-09-12T06:31:42.769Z,101415.88
2022-09-12T06:34:12.797Z,101411.81
2022-09-12T06:36:42.268Z,101415.88
2022-09-12T06:39:13.304Z,101411.00
2022-09-12T06:41:44.002Z,101419.88
2022-09-12T06:44:15.599Z,101412.63
2022-09-12T06:46:44.220Z,101419.00
2022-09-12T06:49:12.378Z,101411.88
2022-09-12T06:51:41.920Z,101413.28
2022-09-12T06:54:10.769Z,101413.19
2022-09-12T06:56:38.951Z,101412.94
2022-09-12T06:59:06.680Z,101403.84
2022-09-12T07:01:35.747Z,101404.50
2022-09-12T07:04:05.267Z,101403.78
2022-09-12T07:06:38.253Z,101404.69
2022-09-12T07:09:08.093Z,101398.28
2022-09-12T07:11:38.055Z,101399.22
2022-09-12T07:14:07.848Z,101389.59
2022-09-12T07:16:38.232Z,101389.41
2022-09-12T07:19:08.195Z,101389.28
2022-09-12T07:21:40.019Z,101390.28
2022-09-12T07:24:09.799Z,101398.50
2022-09-12T07:26:38.556Z,101391.31
2022-09-12T07:29:34.726Z,101401.69
2022-09-12T07:31:55.587Z,101400.34
2022-09-12T07:34:23.334Z,101398.28
2022-09-12T07:36:50.997Z,101390.63
2022-09-12T07:39:18.796Z,101392.94
2022-09-12T07:41:46.663Z,101391.41
2022-09-12T07:44:14.390Z,101387.97
2022-09-12T07:46:42.057Z,101385.94
2022-09-12T07:49:13.261Z,101390.69
2022-09-12T07:51:41.205Z,101388.69
2022-09-12T07:54:10.126Z,101392.56
2022-09-12T07:56:39.315Z,101390.56
2022-09-12T07:59:07.472Z,101384.31
2022-09-12T08:01:35.268Z,101391.25
2022-09-12T08:04:04.895Z,101395.31
2022-09-12T08:06:36.061Z,101390.06
2022-09-12T08:09:05.440Z,101394.84
2022-09-12T08:11:33.387Z,101392.78
2022-09-12T08:14:03.023Z,101395.75
2022-09-12T08:16:32.134Z,101385.94
2022-09-12T08:19:02.016Z,101392.59
2022-09-12T08:21:31.622Z,101391.09
2022-09-12T08:24:02.139Z,101395.19
2022-09-12T08:26:30.407Z,101392.00
2022-09-12T08:28:58.322Z,101388.28
2022-09-12T08:31:27.769Z,101382.34
2022-09-12T08:33:57.445Z,101379.41
2022-09-12T08:36:27.739Z,101378.50
2022-09-12T08:39:00.000Z,101371.88
2022-09-12T08:41:34.787Z,101380.13
2022-09-12T08:44:19.739Z,101381.00
2022-09-12T08:47:01.960Z,101376.53
2022-09-12T08:49:34.705Z,101360.78
2022-09-12T08:52:08.094Z,101358.69
2022-09-12T08:54:36.171Z,101359.06
2022-09-12T08:57:07.317Z,101362.44
2022-09-12T08:59:38.871Z,101352.84
2022-09-12T09:02:28.659Z,101356.41
2022-09-12T09:05:06.481Z,101351.84
2022-09-12T09:07:55.714Z,101346.53
2022-09-12T09:10:29.334Z,101349.09
2022-09-12T09:13:07.624Z,101351.56
2022-09-12T09:15:48.637Z,101342.66
2022-09-12T09:18:21.101Z,101338.88
2022-09-12T09:20:54.686Z,101330.28
2022-09-12T09:23:28.198Z,101338.00
2022-09-12T09:26:01.781Z,101330.41
2022-09-12T09:28:37.693Z,101326.81
2022-09-12T09:31:06.956Z,101330.44
2022-09-12T09:33:38.505Z,101335.44
2022-09-12T09:36:19.262Z,101329.75
2022-09-12T09:38:50.319Z,101326.38
2022-09-12T09:41:31.925Z,101333.19
2022-09-12T09:44:02.951Z,101323.03
2022-09-12T09:46:31.184Z,101324.38
2022-09-12T09:49:03.211Z,101324.38
2022-09-12T09:51:38.635Z,101311.25
2022-09-12T09:54:18.892Z,101314.81
2022-09-12T09:56:46.554Z,101312.03
2022-09-12T09:59:17.950Z,101312.38
2022-09-12T10:01:47.740Z,101308.91
2022-09-12T10:04:21.043Z,101308.16
2022-09-12T10:06:49.184Z,101307.28
2022-09-12T10:09:22.686Z,101301.06
2022-09-12T10:11:52.094Z,101301.44
2022-09-12T10:14:39.775Z,101306.56
2022-09-12T10:17:28.680Z,101295.25
2022-09-12T10:20:20.078Z,101297.34
2022-09-12T10:22:49.585Z,101299.41
2022-09-12T10:25:20.253Z,101295.53
2022-09-12T10:27:55.146Z,101294.78
2022-09-12T10:30:28.317Z,101295.91
2022-09-12T10:33:06.137Z,101295.13
2022-09-12T10:35:46.001Z,101292.41
2022-09-12T10:38:19.283Z,101293.22
2022-09-12T10:40:47.041Z,101288.91
2022-09-12T10:43:19.146Z,101290.09
2022-09-12T10:45:48.272Z,101290.84
2022-09-12T10:48:29.660Z,101289.31
2022-09-12T10:50:58.726Z,101284.94
2022-09-12T10:53:32.257Z,101283.06
2022-09-12T10:56:08.244Z,101278.78
2022-09-12T10:58:49.443Z,101282.31
2022-09-12T11:01:30.656Z,101282.31
2022-09-12T11:04:15.723Z,101278.38
2022-09-12T11:06:57.952Z,101275.16
2022-09-12T11:09:35.771Z,101273.94
2022-09-12T11:12:14.281Z,101268.38
2022-09-12T11:14:57.336Z,101269.69
2022-09-12T11:17:41.876Z,101272.44
2022-09-12T11:20:31.935Z,101270.44
2022-09-12T11:23:26.966Z,101268.13
2022-09-12T11:26:01.289Z,101276.03
2022-09-12T11:28:40.119Z,101274.44
2022-09-12T11:31:32.875Z,101269.66
2022-09-12T11:34:09.043Z,101275.09
2022-09-12T11:36:47.075Z,101266.72
2022-09-12T11:39:17.043Z,101256.94
2022-09-12T11:41:50.382Z,101252.66
2022-09-12T11:44:22.533Z,101262.19
2022-09-12T11:46:52.062Z,101256.31
2022-09-12T11:49:35.240Z,101257.09
2022-09-12T11:52:12.071Z,101250.34
2022-09-12T11:54:44.850Z,101253.13
2022-09-12T11:57:19.829Z,101246.41
2022-09-12T11:59:54.087Z,101246.53
2022-09-12T12:02:28.182Z,101241.44
2022-09-12T12:05:20.580Z,101235.63
2022-09-12T12:07:53.933Z,101236.38
2022-09-12T12:10:36.106Z,101238.31
2022-09-12T12:13:13.265Z,101236.00
2022-09-12T12:15:48.444Z,101236.75
2022-09-12T12:18:20.230Z,101229.31
2022-09-12T12:20:49.904Z,101225.03
2022-09-12T12:23:29.172Z,101221.06
2022-09-12T12:25:58.851Z,101221.59
2022-09-12T12:29:00.183Z,101227.03
2022-09-12T12:31:28.066Z,101224.31
2022-09-12T12:34:29.159Z,101215.25
2022-09-12T12:36:59.294Z,101218.84
2022-09-12T12:40:02.881Z,101211.69
2022-09-12T12:43:05.138Z,101219.53
2022-09-12T12:46:05.050Z,101219.16
2022-09-12T12:48:50.242Z,101222.19
2022-09-12T12:51:41.021Z,101220.69
2022-09-12T12:54:32.637Z,101218.25
2022-09-12T12:57:07.074Z,101218.03
2022-09-12T12:59:35.475Z,101219.19
2022-09-12T13:02:05.834Z,101218.72
2022-09-12T13:04:35.092Z,101227.34
2022-09-12T13:07:08.398Z,101213.63
2022-09-12T13:09:45.532Z,101208.06
2022-09-12T13:12:20.765Z,101208.09
2022-09-12T13:14:58.349Z,101201.59
2022-09-12T13:17:36.400Z,101208.00
2022-09-12T13:20:27.808Z,101201.25
2022-09-12T13:22:56.742Z,101197.28
2022-09-12T13:25:36.749Z,101193.53
2022-09-12T13:28:07.908Z,101190.56
2022-09-12T13:30:37.826Z,101197.31
2022-09-12T13:33:17.780Z,101188.88
2022-09-12T13:36:08.748Z,101193.56
2022-09-12T13:38:51.088Z,101182.38
2022-09-12T13:41:40.470Z,101181.50
2022-09-12T13:44:13.180Z,101172.47
2022-09-12T13:46:41.323Z,101174.59
2022-09-12T13:49:20.214Z,101176.56
2022-09-12T13:51:57.509Z,101168.78
2022-09-12T13:54:26.129Z,101174.19
2022-09-12T13:56:55.696Z,101170.22
2022-09-12T13:59:23.922Z,101169.44
2022-09-12T14:01:51.830Z,101159.47
2022-09-12T14:04:39.505Z,101157.31
2022-09-12T14:07:14.938Z,101164.03
2022-09-12T14:09:45.705Z,101150.88
2022-09-12T14:12:25.364Z,101160.91
2022-09-12T14:14:54.442Z,101162.47
2022-09-12T14:17:29.825Z,101162.19
2022-09-12T14:19:59.471Z,101162.53
2022-09-12T14:22:29.807Z,101161.31
2022-09-12T14:24:59.828Z,101159.72
2022-09-12T14:27:32.946Z,101164.81
2022-09-12T14:30:03.746Z,101151.69
2022-09-12T14:32:31.641Z,101152.00
2022-09-12T14:35:06.994Z,101155.16
2022-09-12T14:37:34.753Z,101152.78
2022-09-12T14:40:05.223Z,101145.00
2022-09-12T14:42:34.998Z,101145.34
2022-09-12T14:45:14.090Z,101148.94
2022-09-12T14:47:44.731Z,101145.41
2022-09-12T14:50:18.952Z,101146.16
2022-09-12T14:52:46.625Z,101144.38
2022-09-12T14:55:25.018Z,101134.97
2022-09-12T14:58:12.968Z,101136.06
2022-09-12T15:00:53.731Z,101130.69
2022-09-12T15:03:27.127Z,101124.84
2022-09-12T15:05:55.215Z,101122.16
2022-09-12T15:08:23.012Z,101124.31
2022-09-12T15:10:50.924Z,101122.09
2022-09-12T15:13:22.964Z,101123.28
2022-09-12T15:15:53.125Z,101131.81
2022-09-12T15:18:22.639Z,101118.50
2022-09-12T15:20:53.482Z,101122.34
2022-09-12T15:23:33.163Z,101122.72
2022-09-12T15:26:00.938Z,101119.19
2022-09-12T15:28:32.267Z,101117.66
2022-09-12T15:31:06.860Z,101123.59
2022-09-12T15:33:35.090Z,101119.69
2022-09-12T15:36:03.443Z,101115.03
2022-09-12T15:38:31.145Z,101113.19
2022-09-12T15:40:58.854Z,101109.59
2022-09-12T15:43:27.252Z,101114.59
2022-09-12T15:45:56.305Z,101115.44
2022-09-12T15:48:24.556Z,101119.41
2022-09-12T15:50:52.224Z,101111.28
2022-09-12T15:53:19.935Z,101114.84
2022-09-12T15:55:47.625Z,101114.50
2022-09-12T15:58:15.350Z,101111.41
2022-09-12T16:00:43.044Z,101110.16
2022-09-12T16:03:23.542Z,101112.19
2022-09-12T16:05:51.882Z,101104.75
2022-09-12T16:08:19.568Z,101106.31
2022-09-12T16:10:50.483Z,101102.06
2022-09-12T16:13:18.356Z,101111.91
2022-09-12T16:15:46.345Z,101113.84
2022-09-12T16:18:15.689Z,101110.31
2022-09-12T16:20:43.437Z,101106.03
2022-09-12T16:23:12.122Z,101112.69
2022-09-12T16:25:39.944Z,101107.22
2022-09-12T16:28:07.916Z,101113.09
2022-09-12T16:30:36.138Z,101100.16
2022-09-12T16:33:04.825Z,101103.31
2022-09-12T16:35:34.273Z,101093.13
2022-09-12T16:38:02.496Z,101100.19
2022-09-12T16:40:31.138Z,101107.28
2022-09-12T16:42:58.865Z,101101.78
2022-09-12T16:45:26.703Z,101097.47
2022-09-12T16:47:54.465Z,101101.41
2022-09-12T16:50:22.184Z,101099.06
2022-09-12T16:52:59.367Z,101095.19
2022-09-12T16:55:33.764Z,101092.06
2022-09-12T16:58:08.508Z,101091.66
2022-09-12T17:00:41.571Z,101076.44
2022-09-12T17:03:14.875Z,101070.19
2022-09-12T17:05:47.404Z,101077.22
2022-09-12T17:08:24.199Z,101076.84
2022-09-12T17:11:02.357Z,101065.53
2022-09-12T17:14:00.259Z,101059.28
2022-09-12T17:16:29.775Z,101060.84
2022-09-12T17:19:04.012Z,101062.03
2022-09-12T17:21:35.078Z,101060.03
2022-09-12T17:24:10.422Z,101065.88
2022-09-12T17:26:44.304Z,101063.53
2022-09-12T17:29:13.845Z,101069.38
2022-09-12T17:31:41.764Z,101066.25
2022-09-12T17:34:10.531Z,101063.13
2022-09-12T17:36:39.334Z,101067.78
2022-09-12T17:39:08.372Z,101079.88
2022-09-12T17:41:37.263Z,101081.03
2022-09-12T17:44:07.573Z,101088.06
2022-09-12T17:46:37.258Z,101079.47
2022-09-12T17:49:07.340Z,101081.41
2022-09-12T17:51:35.474Z,101087.63
2022-09-12T17:54:05.534Z,101093.44
2022-09-12T17:56:35.947Z,101099.25
2022-09-12T17:59:04.583Z,101099.25
2022-09-12T18:01:50.052Z,101100.03
2022-09-12T18:04:18.238Z,101100.78
2022-09-12T18:06:48.655Z,101100.00
2022-09-12T18:09:18.465Z,101109.34
2022-09-12T18:11:48.595Z,101112.78
2022-09-12T18:14:17.222Z,101106.88
2022-09-12T18:16:45.377Z,101115.44
2022-09-12T18:19:13.499Z,101114.97
2022-09-12T18:21:41.218Z,101104.84
2022-09-12T18:24:10.384Z,101098.53
2022-09-12T18:26:38.478Z,101095.44
2022-09-12T18:29:08.050Z,101092.78
2022-09-12T18:31:36.180Z,101092.75
2022-09-12T18:34:05.873Z,101086.97
2022-09-12T18:36:33.645Z,101095.81
2022-09-12T18:39:01.278Z,101096.94
2022-09-12T18:41:29.245Z,101102.72
2022-09-12T18:43:58.599Z,101097.22
2022-09-12T18:46:29.345Z,101104.97
2022-09-12T18:48:58.365Z,101097.13
2022-09-12T18:51:31.323Z,101095.13
2022-09-12T18:54:00.969Z,101099.72
2022-09-12T18:56:32.235Z,101092.69
2022-09-12T18:59:01.159Z,101089.19
2022-09-12T19:01:32.297Z,101084.22
2022-09-12T19:04:01.096Z,101068.28
2022-09-12T19:06:31.542Z,101065.84
2022-09-12T19:09:03.830Z,101070.41
2022-09-12T19:11:34.788Z,101067.28
2022-09-12T19:14:02.497Z,101064.66
2022-09-12T19:16:31.486Z,101064.22
2022-09-12T19:18:59.973Z,101065.66
2022-09-12T19:21:29.931Z,101065.53
2022-09-12T19:24:00.153Z,101062.94
2022-09-12T19:26:28.236Z,101062.50
2022-09-12T19:28:56.594Z,101056.31
2022-09-12T19:31:24.429Z,101049.75
2022-09-12T19:33:53.762Z,101052.09
2022-09-12T19:39:11.263Z,101061.91
2022-09-12T19:41:38.961Z,101056.06
2022-09-12T19:44:07.146Z,101056.19
2022-09-12T19:46:34.974Z,101054.00
2022-09-12T19:49:04.643Z,101050.75
2022-09-12T19:51:32.377Z,101053.38
2022-09-12T19:54:00.065Z,101050.19
2022-09-12T19:56:27.696Z,101046.91
2022-09-12T19:58:56.709Z,101039.59
2022-09-12T20:01:28.160Z,101036.69
2022-09-12T20:03:56.551Z,101044.59
2022-09-12T20:06:26.753Z,101039.72
2022-09-12T20:08:54.472Z,101037.69
2022-09-12T20:11:24.386Z,101035.50
2022-09-12T20:13:52.705Z,101034.97
2022-09-12T20:16:22.916Z,101030.31
2022-09-12T20:18:54.983Z,101032.94
2022-09-12T20:21:31.039Z,101048.06
2022-09-12T20:24:02.317Z,101039.81
2022-09-12T20:26:30.124Z,101044.50
2022-09-12T20:28:57.824Z,101038.88
2022-09-12T20:31:25.686Z,101035.81
2022-09-12T20:33:53.556Z,101035.22
2022-09-12T20:36:22.309Z,101030.09
2022-09-12T20:38:52.918Z,101031.53
2022-09-12T20:41:22.074Z,101033.94
2022-09-12T20:43:51.137Z,101034.75
2022-09-12T20:46:21.794Z,101034.47
2022-09-12T20:48:50.713Z,101031.22
2022-09-12T20:51:18.772Z,101024.47
2022-09-12T20:53:46.746Z,101020.91
2022-09-12T20:56:15.794Z,101023.22
2022-09-12T20:58:44.765Z,101015.88
2022-09-12T21:01:13.685Z,101021.59
2022-09-12T21:03:42.735Z,101017.69
2022-09-12T21:06:12.471Z,101020.09
2022-09-12T21:08:40.231Z,101020.41
2022-09-12T21:11:08.363Z,101017.69
2022-09-12T21:13:38.001Z,101017.38
2022-09-12T21:16:07.798Z,101012.63
2022-09-12T21:18:36.322Z,101022.25
2022-09-12T21:21:04.581Z,101010.22
2022-09-12T21:23:32.856Z,101015.53
2022-09-12T21:26:01.401Z,101013.22
2022-09-12T21:28:29.201Z,101012.56
2022-09-12T21:30:58.658Z,101013.16
2022-09-12T21:33:26.629Z,101001.47
2022-09-12T21:35:54.380Z,101003.16
2022-09-12T21:38:22.131Z,100995.69
2022-09-12T21:40:49.822Z,100994.16
2022-09-12T21:43:17.494Z,100999.59
2022-09-12T21:45:45.212Z,101000.31
2022-09-12T21:48:14.236Z,100998.34
2022-09-12T21:50:42.231Z,101000.59
2022-09-12T21:53:09.884Z,101001.25
2022-09-12T21:55:37.713Z,100991.84
2022-09-12T21:58:05.909Z,100991.84
2022-09-12T22:00:33.599Z,100996.03
2022-09-12T22:03:01.756Z,100984.41
2022-09-12T22:05:32.697Z,100981.34
2022-09-12T22:08:00.865Z,100978.97
2022-09-12T22:10:28.816Z,100972.69
2022-09-12T22:12:56.817Z,100965.59
2022-09-12T22:15:41.355Z,100959.81
2022-09-12T22:18:09.273Z,100951.63
2022-09-12T22:20:38.355Z,100943.78
2022-09-12T22:23:24.981Z,100947.50
2022-09-12T22:25:55.475Z,100945.28
2022-09-12T22:28:24.480Z,100947.06
2022-09-12T22:30:53.253Z,100945.56
2022-09-12T22:33:21.189Z,100940.94
2022-09-12T22:35:50.211Z,100934.28
2022-09-12T22:38:18.030Z,100920.31
2022-09-12T22:40:45.778Z,100925.31
2022-09-12T22:43:13.506Z,100921.53
2022-09-12T22:45:42.747Z,100921.53
2022-09-12T22:48:10.489Z,100913.41
2022-09-12T22:50:38.443Z,100917.28
2022-09-12T22:53:07.412Z,100908.38
2022-09-12T22:55:35.152Z,100895.47
2022-09-12T22:58:03.657Z,100895.47
2022-09-12T23:00:31.386Z,100890.47
2022-09-12T23:02:59.313Z,100887.81
2022-09-12T23:05:27.047Z,100884.72
2022-09-12T23:07:55.275Z,100883.53
2022-09-12T23:10:27.127Z,100883.53
2022-09-12T23:12:55.354Z,100878.78
2022-09-12T23:15:23.084Z,100868.66
2022-09-12T23:17:50.747Z,100880.72
2022-09-12T23:20:18.610Z,100874.97
2022-09-12T23:22:46.299Z,100881.97
2022-09-12T23:25:14.860Z,100879.69
2022-09-12T23:27:43.854Z,100876.59
2022-09-12T23:30:12.977Z,100866.84
2022-09-12T23:32:40.720Z,100870.59
2022-09-12T23:35:08.762Z,100872.16
2022-09-12T23:37:36.436Z,100868.00
2022-09-12T23:40:04.897Z,100867.22
2022-09-12T23:42:32.525Z,100867.28
2022-09-12T23:45:01.805Z,100869.13
2022-09-12T23:47:29.478Z,100867.22
2022-09-12T23:49:57.138Z,100864.44
2022-09-12T23:52:24.915Z,100865.19
2022-09-12T23:54:52.608Z,100861.19
2022-09-12T23:57:20.272Z,100851.13
2022-09-12T23:59:47.970Z,100848.84
